FIN7WG EFHK-EGLL
Flight info
| Callsign | FIN7WG |
|---|---|
| Flight time | 2h 40m |
| Altitude | 34000 |
| Route | NUNTO Y367 OLPED DCT OBEVI DCT NISIX DCT DOROR DCT LONAM DCT BINBO DCT AKOKO N866 BUKUT P7 BARMI |
| Aircraft | A321/M-SDE3FGHIRWY/LB1 |
Departure
| Time | 2026-04-23 18:23 |
|---|---|
| Airport | Helsinki Vantaa Airport (EFHK) |
Arrival
| Time | 2026-04-23 21:03 |
|---|---|
| Airport | London Heathrow Airport (EGLL) |
| Time | Latitude | Longitude | Altitude | Speed | Heading |
|---|---|---|---|---|---|
| 2026-04-23 17:01 | 60.31459 | 24.96163 | 167 ft | 0 kts | 31° |
| 2026-04-23 18:08 | 60.31457 | 24.96160 | 166 ft | 3 kts | 31° |
| 2026-04-23 18:08 | 60.31434 | 24.96131 | 166 ft | 4 kts | 33° |
| 2026-04-23 18:08 | 60.31411 | 24.96104 | 166 ft | 4 kts | 20° |
| 2026-04-23 18:08 | 60.31390 | 24.96092 | 166 ft | 4 kts | 1° |
| 2026-04-23 18:09 | 60.31369 | 24.96101 | 166 ft | 0 kts | 323° |
| 2026-04-23 18:12 | 60.31370 | 24.96096 | 166 ft | 1 kts | 301° |
| 2026-04-23 18:12 | 60.31359 | 24.96034 | 166 ft | 9 kts | 242° |
| 2026-04-23 18:13 | 60.31315 | 24.95938 | 166 ft | 10 kts | 224° |
| 2026-04-23 18:13 | 60.31267 | 24.95832 | 166 ft | 11 kts | 228° |
| 2026-04-23 18:13 | 60.31217 | 24.95717 | 166 ft | 11 kts | 229° |
| 2026-04-23 18:13 | 60.31161 | 24.95598 | 166 ft | 12 kts | 220° |
| 2026-04-23 18:14 | 60.31094 | 24.95489 | 166 ft | 13 kts | 224° |
| 2026-04-23 18:14 | 60.31031 | 24.95359 | 166 ft | 13 kts | 228° |
| 2026-04-23 18:14 | 60.31005 | 24.95195 | 167 ft | 12 kts | 290° |
| 2026-04-23 18:14 | 60.31059 | 24.95080 | 169 ft | 11 kts | 318° |
| 2026-04-23 18:15 | 60.31099 | 24.95017 | 168 ft | 1 kts | 328° |
| 2026-04-23 18:15 | 60.31115 | 24.94999 | 167 ft | 4 kts | 332° |
| 2026-04-23 18:15 | 60.31151 | 24.94955 | 166 ft | 8 kts | 323° |
| 2026-04-23 18:15 | 60.31203 | 24.94864 | 164 ft | 11 kts | 316° |
| 2026-04-23 18:16 | 60.31263 | 24.94748 | 163 ft | 13 kts | 316° |
| 2026-04-23 18:16 | 60.31301 | 24.94599 | 160 ft | 12 kts | 260° |
| 2026-04-23 18:16 | 60.31249 | 24.94460 | 159 ft | 13 kts | 227° |
| 2026-04-23 18:17 | 60.31131 | 24.94206 | 157 ft | 8 kts | 227° |
| 2026-04-23 18:17 | 60.31089 | 24.94115 | 157 ft | 9 kts | 227° |
| 2026-04-23 18:17 | 60.31050 | 24.94024 | 158 ft | 5 kts | 234° |
| 2026-04-23 18:17 | 60.31043 | 24.94001 | 158 ft | 2 kts | 238° |
| 2026-04-23 18:18 | 60.31038 | 24.93983 | 158 ft | 1 kts | 244° |
| 2026-04-23 18:18 | 60.31034 | 24.93960 | 158 ft | 3 kts | 250° |
| 2026-04-23 18:18 | 60.31034 | 24.93889 | 159 ft | 6 kts | 281° |
| 2026-04-23 18:18 | 60.31040 | 24.93849 | 159 ft | 0 kts | 294° |
| 2026-04-23 18:20 | 60.31044 | 24.93833 | 159 ft | 4 kts | 296° |
| 2026-04-23 18:20 | 60.31073 | 24.93763 | 159 ft | 9 kts | 318° |
| 2026-04-23 18:20 | 60.31126 | 24.93684 | 157 ft | 6 kts | 337° |
| 2026-04-23 18:21 | 60.31164 | 24.93710 | 158 ft | 6 kts | 44° |
| 2026-04-23 18:21 | 60.31171 | 24.93725 | 158 ft | 0 kts | 46° |
| 2026-04-23 18:21 | 60.31172 | 24.93726 | 158 ft | 0 kts | 48° |
| 2026-04-23 18:22 | 60.31262 | 24.93930 | 159 ft | 54 kts | 47° |
| 2026-04-23 18:22 | 60.31667 | 24.94803 | 169 ft | 116 kts | 48° |
| 2026-04-23 18:23 | 60.32096 | 24.95743 | 174 ft | 152 kts | 48° |
| 2026-04-23 18:23 | 60.33989 | 24.99966 | 1425 ft | 174 kts | 44° |
| 2026-04-23 18:24 | 60.35618 | 25.03493 | 2492 ft | 184 kts | 43° |
| 2026-04-23 18:24 | 60.36536 | 25.05512 | 2674 ft | 206 kts | 44° |
| 2026-04-23 18:24 | 60.37557 | 25.07765 | 2840 ft | 231 kts | 44° |
| 2026-04-23 18:25 | 60.40050 | 25.12343 | 3892 ft | 247 kts | 19° |
| 2026-04-23 18:25 | 60.41427 | 25.12832 | 4498 ft | 247 kts | 356° |
| 2026-04-23 18:25 | 60.43042 | 25.12605 | 5214 ft | 249 kts | 358° |
| 2026-04-23 18:25 | 60.44786 | 25.12616 | 5985 ft | 253 kts | 1° |
| 2026-04-23 18:26 | 60.46560 | 25.12750 | 6724 ft | 256 kts | 2° |
| 2026-04-23 18:26 | 60.48333 | 25.12542 | 7448 ft | 257 kts | 343° |
| 2026-04-23 18:26 | 60.49856 | 25.10683 | 8193 ft | 261 kts | 317° |
| 2026-04-23 18:26 | 60.50863 | 25.07609 | 8942 ft | 268 kts | 294° |
| 2026-04-23 18:27 | 60.51116 | 25.03818 | 9680 ft | 281 kts | 269° |
| 2026-04-23 18:27 | 60.50508 | 24.99919 | 10113 ft | 303 kts | 253° |
| 2026-04-23 18:27 | 60.49604 | 24.95886 | 10245 ft | 325 kts | 251° |
| 2026-04-23 18:27 | 60.48593 | 24.91616 | 10372 ft | 345 kts | 250° |
| 2026-04-23 18:28 | 60.47535 | 24.87247 | 10804 ft | 353 kts | 250° |
| 2026-04-23 18:28 | 60.46447 | 24.82759 | 11374 ft | 357 kts | 250° |
| 2026-04-23 18:28 | 60.45353 | 24.78206 | 11957 ft | 360 kts | 251° |
| 2026-04-23 18:28 | 60.44255 | 24.73603 | 12544 ft | 364 kts | 251° |
| 2026-04-23 18:29 | 60.43153 | 24.68964 | 13127 ft | 368 kts | 251° |
| 2026-04-23 18:29 | 60.42039 | 24.64266 | 13703 ft | 371 kts | 252° |
| 2026-04-23 18:29 | 60.40918 | 24.59537 | 14211 ft | 375 kts | 252° |
| 2026-04-23 18:29 | 60.39784 | 24.54769 | 14732 ft | 378 kts | 252° |
| 2026-04-23 18:30 | 60.38635 | 24.49959 | 15255 ft | 381 kts | 252° |
| 2026-04-23 18:30 | 60.37474 | 24.45106 | 15787 ft | 384 kts | 252° |
| 2026-04-23 18:30 | 60.36303 | 24.40227 | 16309 ft | 388 kts | 253° |
| 2026-04-23 18:30 | 60.35122 | 24.35306 | 16826 ft | 391 kts | 253° |
| 2026-04-23 18:31 | 60.33928 | 24.30343 | 17345 ft | 394 kts | 253° |
| 2026-04-23 18:31 | 60.32721 | 24.25341 | 17856 ft | 398 kts | 253° |
| 2026-04-23 18:31 | 60.31504 | 24.20315 | 18345 ft | 401 kts | 253° |
| 2026-04-23 18:31 | 60.30271 | 24.15241 | 18749 ft | 404 kts | 253° |
| 2026-04-23 18:32 | 60.29025 | 24.10128 | 19136 ft | 407 kts | 253° |
| 2026-04-23 18:32 | 60.27770 | 24.04982 | 19565 ft | 410 kts | 253° |
| 2026-04-23 18:32 | 60.26505 | 23.99800 | 20023 ft | 413 kts | 253° |
| 2026-04-23 18:32 | 60.25232 | 23.94601 | 20461 ft | 416 kts | 253° |
| 2026-04-23 18:33 | 60.23944 | 23.89363 | 20883 ft | 419 kts | 253° |
| 2026-04-23 18:33 | 60.22644 | 23.84081 | 21308 ft | 422 kts | 253° |
| 2026-04-23 18:33 | 60.21334 | 23.78760 | 21703 ft | 426 kts | 253° |
| 2026-04-23 18:33 | 60.20016 | 23.73415 | 22121 ft | 429 kts | 253° |
| 2026-04-23 18:34 | 60.18682 | 23.68033 | 22509 ft | 432 kts | 253° |
| 2026-04-23 18:34 | 60.17334 | 23.62613 | 22895 ft | 434 kts | 253° |
| 2026-04-23 18:34 | 60.15995 | 23.57242 | 23273 ft | 437 kts | 253° |
| 2026-04-23 18:34 | 60.14625 | 23.51765 | 23620 ft | 440 kts | 253° |
| 2026-04-23 18:35 | 60.13246 | 23.46279 | 23896 ft | 443 kts | 253° |
| 2026-04-23 18:35 | 60.11852 | 23.40750 | 24228 ft | 445 kts | 253° |
| 2026-04-23 18:35 | 60.10461 | 23.35238 | 24547 ft | 447 kts | 253° |
| 2026-04-23 18:35 | 60.09055 | 23.29664 | 24853 ft | 449 kts | 253° |
| 2026-04-23 18:36 | 60.07644 | 23.24064 | 25172 ft | 451 kts | 254° |
| 2026-04-23 18:36 | 60.06227 | 23.18447 | 25469 ft | 453 kts | 254° |
| 2026-04-23 18:36 | 60.04798 | 23.12805 | 25728 ft | 456 kts | 253° |
| 2026-04-23 18:36 | 60.03356 | 23.07141 | 26044 ft | 458 kts | 253° |
| 2026-04-23 18:37 | 60.01900 | 23.01450 | 26350 ft | 460 kts | 253° |
| 2026-04-23 18:37 | 60.00434 | 22.95741 | 26643 ft | 462 kts | 253° |
| 2026-04-23 18:37 | 59.98964 | 22.90024 | 26934 ft | 464 kts | 253° |
| 2026-04-23 18:37 | 59.97486 | 22.84285 | 27219 ft | 466 kts | 253° |
| 2026-04-23 18:38 | 59.95998 | 22.78525 | 27505 ft | 468 kts | 253° |
| 2026-04-23 18:38 | 59.94500 | 22.72737 | 27749 ft | 470 kts | 253° |
| 2026-04-23 18:38 | 59.92993 | 22.66929 | 27986 ft | 473 kts | 253° |
| 2026-04-23 18:38 | 59.91473 | 22.61092 | 28257 ft | 475 kts | 253° |
| 2026-04-23 18:39 | 59.89949 | 22.55246 | 28517 ft | 477 kts | 253° |
| 2026-04-23 18:39 | 59.88412 | 22.49371 | 28776 ft | 479 kts | 253° |
| 2026-04-23 18:39 | 59.86866 | 22.43472 | 29046 ft | 481 kts | 253° |
| 2026-04-23 18:39 | 59.85315 | 22.37571 | 29309 ft | 483 kts | 253° |
| 2026-04-23 18:40 | 59.83748 | 22.31628 | 29567 ft | 485 kts | 253° |
| 2026-04-23 18:40 | 59.82176 | 22.25685 | 29893 ft | 485 kts | 252° |
| 2026-04-23 18:40 | 59.80602 | 22.19756 | 30192 ft | 484 kts | 252° |
| 2026-04-23 18:40 | 59.79028 | 22.13850 | 30559 ft | 483 kts | 252° |
| 2026-04-23 18:41 | 59.77461 | 22.07979 | 30897 ft | 481 kts | 252° |
| 2026-04-23 18:41 | 59.75894 | 22.02117 | 31242 ft | 480 kts | 252° |
| 2026-04-23 18:41 | 59.74328 | 21.96269 | 31570 ft | 479 kts | 252° |
| 2026-04-23 18:41 | 59.72766 | 21.90447 | 31899 ft | 478 kts | 252° |
| 2026-04-23 18:42 | 59.71205 | 21.84652 | 32216 ft | 477 kts | 252° |
| 2026-04-23 18:42 | 59.69642 | 21.78855 | 32530 ft | 476 kts | 252° |
| 2026-04-23 18:42 | 59.68086 | 21.73092 | 32852 ft | 475 kts | 252° |
| 2026-04-23 18:42 | 59.66529 | 21.67349 | 33146 ft | 474 kts | 252° |
| 2026-04-23 18:43 | 59.64966 | 21.61610 | 33458 ft | 473 kts | 252° |
| 2026-04-23 18:43 | 59.63406 | 21.55898 | 33758 ft | 472 kts | 252° |
| 2026-04-23 18:43 | 59.61861 | 21.50251 | 33931 ft | 472 kts | 252° |
| 2026-04-23 18:44 | 59.58746 | 21.38892 | 33955 ft | 469 kts | 252° |
| 2026-04-23 18:44 | 59.55631 | 21.27585 | 33880 ft | 470 kts | 251° |
| 2026-04-23 18:45 | 59.52506 | 21.16313 | 33964 ft | 468 kts | 251° |
| 2026-04-23 18:45 | 59.49385 | 21.05073 | 33968 ft | 468 kts | 251° |
| 2026-04-23 18:46 | 59.46250 | 20.93865 | 33972 ft | 468 kts | 251° |
| 2026-04-23 18:46 | 59.43630 | 20.84556 | 33974 ft | 468 kts | 251° |
| 2026-04-23 18:47 | 59.40470 | 20.73373 | 33976 ft | 468 kts | 251° |
| 2026-04-23 18:47 | 59.37306 | 20.62202 | 33962 ft | 469 kts | 251° |
| 2026-04-23 18:48 | 59.34117 | 20.51029 | 33979 ft | 469 kts | 251° |
| 2026-04-23 18:48 | 59.30977 | 20.39853 | 33996 ft | 467 kts | 253° |
| 2026-04-23 18:49 | 59.28162 | 20.28471 | 33968 ft | 462 kts | 255° |
| 2026-04-23 18:49 | 59.25508 | 20.17046 | 33999 ft | 462 kts | 256° |
| 2026-04-23 18:50 | 59.23255 | 20.07568 | 34007 ft | 463 kts | 255° |
| 2026-04-23 18:50 | 59.19999 | 19.94311 | 33990 ft | 463 kts | 254° |
| 2026-04-23 18:51 | 59.17190 | 19.83000 | 34011 ft | 463 kts | 254° |
| 2026-04-23 18:51 | 59.14388 | 19.71705 | 34015 ft | 463 kts | 254° |
| 2026-04-23 18:52 | 59.11576 | 19.60427 | 34024 ft | 463 kts | 254° |
| 2026-04-23 18:52 | 59.08750 | 19.49168 | 33988 ft | 462 kts | 253° |
| 2026-04-23 18:53 | 59.05926 | 19.37963 | 34011 ft | 461 kts | 253° |
| 2026-04-23 18:53 | 59.03123 | 19.26876 | 34022 ft | 460 kts | 253° |
| 2026-04-23 18:54 | 59.00298 | 19.15746 | 34024 ft | 459 kts | 253° |
| 2026-04-23 18:54 | 58.97450 | 19.04585 | 34030 ft | 459 kts | 252° |
| 2026-04-23 18:55 | 58.94599 | 18.93516 | 34033 ft | 459 kts | 252° |
| 2026-04-23 18:55 | 58.91765 | 18.82531 | 34027 ft | 459 kts | 252° |
| 2026-04-23 18:56 | 58.89388 | 18.73355 | 34024 ft | 459 kts | 252° |
| 2026-04-23 18:56 | 58.86049 | 18.60561 | 34024 ft | 459 kts | 252° |
| 2026-04-23 18:57 | 58.83159 | 18.49562 | 34006 ft | 459 kts | 252° |
| 2026-04-23 18:57 | 58.80274 | 18.38575 | 34009 ft | 459 kts | 252° |
| 2026-04-23 18:58 | 58.77377 | 18.27606 | 34012 ft | 459 kts | 252° |
| 2026-04-23 18:58 | 58.74461 | 18.16660 | 34013 ft | 459 kts | 252° |
| 2026-04-23 18:59 | 58.71532 | 18.05701 | 34016 ft | 460 kts | 251° |
| 2026-04-23 18:59 | 58.68595 | 17.94774 | 34022 ft | 460 kts | 251° |
| 2026-04-23 19:00 | 58.65655 | 17.83855 | 33970 ft | 460 kts | 251° |
| 2026-04-23 19:00 | 58.62704 | 17.72962 | 33999 ft | 459 kts | 251° |
| 2026-04-23 19:01 | 58.59758 | 17.62170 | 34022 ft | 459 kts | 251° |
| 2026-04-23 19:01 | 58.56788 | 17.51330 | 34027 ft | 459 kts | 251° |
| 2026-04-23 19:02 | 58.54299 | 17.42257 | 34030 ft | 460 kts | 251° |
| 2026-04-23 19:02 | 58.50826 | 17.29688 | 34033 ft | 459 kts | 250° |
| 2026-04-23 19:03 | 58.47831 | 17.18902 | 34030 ft | 459 kts | 250° |
| 2026-04-23 19:03 | 58.44831 | 17.08138 | 34011 ft | 459 kts | 250° |
| 2026-04-23 19:04 | 58.41824 | 16.97387 | 33990 ft | 459 kts | 250° |
| 2026-04-23 19:04 | 58.38803 | 16.86656 | 34012 ft | 459 kts | 250° |
| 2026-04-23 19:05 | 58.35760 | 16.75946 | 34021 ft | 460 kts | 250° |
| 2026-04-23 19:05 | 58.32717 | 16.65227 | 34030 ft | 460 kts | 250° |
| 2026-04-23 19:06 | 58.29671 | 16.54534 | 34049 ft | 460 kts | 249° |
| 2026-04-23 19:06 | 58.26607 | 16.43853 | 34050 ft | 460 kts | 249° |
| 2026-04-23 19:07 | 58.23538 | 16.33225 | 34036 ft | 460 kts | 249° |
| 2026-04-23 19:07 | 58.20455 | 16.22582 | 34001 ft | 460 kts | 249° |
| 2026-04-23 19:08 | 58.17375 | 16.11971 | 34039 ft | 459 kts | 249° |
| 2026-04-23 19:08 | 58.14284 | 16.01381 | 34059 ft | 459 kts | 248° |
| 2026-04-23 19:09 | 58.11188 | 15.90833 | 34082 ft | 459 kts | 248° |
| 2026-04-23 19:09 | 58.08084 | 15.80310 | 34079 ft | 458 kts | 248° |
| 2026-04-23 19:10 | 58.04985 | 15.69871 | 34056 ft | 458 kts | 248° |
| 2026-04-23 19:10 | 58.01846 | 15.59315 | 34069 ft | 458 kts | 248° |
| 2026-04-23 19:11 | 57.98739 | 15.48923 | 34072 ft | 458 kts | 248° |
| 2026-04-23 19:11 | 57.95597 | 15.38452 | 34049 ft | 458 kts | 247° |
| 2026-04-23 19:12 | 57.92984 | 15.29775 | 34077 ft | 458 kts | 247° |
| 2026-04-23 19:12 | 57.89299 | 15.17616 | 34087 ft | 458 kts | 246° |
| 2026-04-23 19:13 | 57.86131 | 15.07221 | 34085 ft | 458 kts | 246° |
| 2026-04-23 19:13 | 57.82964 | 14.96843 | 34094 ft | 458 kts | 246° |
| 2026-04-23 19:14 | 57.79786 | 14.86476 | 34102 ft | 458 kts | 246° |
| 2026-04-23 19:14 | 57.76594 | 14.76136 | 34103 ft | 458 kts | 246° |
| 2026-04-23 19:15 | 57.73389 | 14.65804 | 34059 ft | 458 kts | 246° |
| 2026-04-23 19:15 | 57.70188 | 14.55509 | 34092 ft | 457 kts | 246° |
| 2026-04-23 19:16 | 57.67006 | 14.45315 | 34093 ft | 457 kts | 245° |
| 2026-04-23 19:16 | 57.63797 | 14.35083 | 34098 ft | 456 kts | 245° |
| 2026-04-23 19:17 | 57.58971 | 14.19775 | 34098 ft | 456 kts | 245° |
| 2026-04-23 19:17 | 57.55738 | 14.09586 | 34097 ft | 457 kts | 245° |
| 2026-04-23 19:18 | 57.52500 | 13.99418 | 34124 ft | 457 kts | 245° |
| 2026-04-23 19:18 | 57.49255 | 13.89264 | 34102 ft | 456 kts | 245° |
| 2026-04-23 19:19 | 57.44376 | 13.74114 | 34122 ft | 454 kts | 245° |
| 2026-04-23 19:20 | 57.39503 | 13.59066 | 34133 ft | 452 kts | 244° |
| 2026-04-23 19:20 | 57.36275 | 13.49159 | 34133 ft | 451 kts | 244° |
| 2026-04-23 19:21 | 57.31396 | 13.34245 | 34139 ft | 451 kts | 244° |
| 2026-04-23 19:22 | 57.28138 | 13.24321 | 34132 ft | 451 kts | 244° |
| 2026-04-23 19:22 | 57.23238 | 13.09500 | 34133 ft | 449 kts | 244° |
| 2026-04-23 19:23 | 57.19976 | 12.99684 | 34153 ft | 448 kts | 244° |
| 2026-04-23 19:24 | 57.15088 | 12.85072 | 34156 ft | 446 kts | 244° |
| 2026-04-23 19:24 | 57.10228 | 12.70598 | 34153 ft | 444 kts | 244° |
| 2026-04-23 19:25 | 57.03708 | 12.51304 | 34155 ft | 444 kts | 243° |
| 2026-04-23 19:26 | 56.98808 | 12.36915 | 34141 ft | 443 kts | 243° |
| 2026-04-23 19:27 | 56.90616 | 12.13092 | 34159 ft | 442 kts | 243° |
| 2026-04-23 19:28 | 56.84162 | 11.94441 | 34161 ft | 442 kts | 243° |
| 2026-04-23 19:29 | 56.79210 | 11.80237 | 34145 ft | 442 kts | 242° |
| 2026-04-23 19:30 | 56.74792 | 11.67670 | 34146 ft | 442 kts | 242° |
| 2026-04-23 19:31 | 56.69809 | 11.53539 | 34165 ft | 441 kts | 242° |
| 2026-04-23 19:31 | 56.65946 | 11.42633 | 34163 ft | 441 kts | 241° |
| 2026-04-23 19:32 | 56.63150 | 11.34780 | 34166 ft | 441 kts | 241° |
| 2026-04-23 19:32 | 56.59812 | 11.25444 | 34156 ft | 441 kts | 241° |
| 2026-04-23 19:33 | 56.56466 | 11.16115 | 34156 ft | 441 kts | 241° |
| 2026-04-23 19:33 | 56.51450 | 11.02206 | 34160 ft | 442 kts | 241° |
| 2026-04-23 19:34 | 56.48081 | 10.92892 | 34154 ft | 442 kts | 241° |
| 2026-04-23 19:35 | 56.43000 | 10.78956 | 34156 ft | 443 kts | 240° |
| 2026-04-23 19:35 | 56.39608 | 10.69675 | 34151 ft | 443 kts | 240° |
| 2026-04-23 19:36 | 56.36209 | 10.60401 | 34141 ft | 443 kts | 240° |
| 2026-04-23 19:36 | 56.32807 | 10.51146 | 34147 ft | 443 kts | 240° |
| 2026-04-23 19:37 | 56.29393 | 10.41920 | 34152 ft | 443 kts | 240° |
| 2026-04-23 19:37 | 56.25970 | 10.32717 | 34157 ft | 442 kts | 240° |
| 2026-04-23 19:38 | 56.22547 | 10.23524 | 34197 ft | 441 kts | 239° |
| 2026-04-23 19:38 | 56.19149 | 10.14442 | 34211 ft | 440 kts | 239° |
| 2026-04-23 19:39 | 56.15714 | 10.05284 | 34193 ft | 439 kts | 239° |
| 2026-04-23 19:39 | 56.12296 | 9.96209 | 34189 ft | 439 kts | 239° |
| 2026-04-23 19:40 | 56.08863 | 9.87150 | 34192 ft | 439 kts | 239° |
| 2026-04-23 19:40 | 56.05423 | 9.78092 | 34205 ft | 439 kts | 239° |
| 2026-04-23 19:41 | 56.01984 | 9.69057 | 34217 ft | 439 kts | 239° |
| 2026-04-23 19:41 | 55.98559 | 9.60101 | 34219 ft | 438 kts | 238° |
| 2026-04-23 19:42 | 55.95113 | 9.51130 | 34229 ft | 437 kts | 238° |
| 2026-04-23 19:42 | 55.91672 | 9.42211 | 34227 ft | 436 kts | 238° |
| 2026-04-23 19:43 | 55.88229 | 9.33303 | 34211 ft | 436 kts | 238° |
| 2026-04-23 19:43 | 55.84779 | 9.24400 | 34210 ft | 436 kts | 238° |
| 2026-04-23 19:44 | 55.81332 | 9.15536 | 34202 ft | 436 kts | 238° |
| 2026-04-23 19:44 | 55.77872 | 9.06690 | 34203 ft | 436 kts | 238° |
| 2026-04-23 19:45 | 55.74398 | 8.97858 | 34206 ft | 436 kts | 237° |
| 2026-04-23 19:45 | 55.70952 | 8.89107 | 34224 ft | 435 kts | 237° |
| 2026-04-23 19:46 | 55.67484 | 8.80351 | 34234 ft | 434 kts | 237° |
| 2026-04-23 19:46 | 55.64011 | 8.71596 | 34250 ft | 434 kts | 237° |
| 2026-04-23 19:47 | 55.60534 | 8.62858 | 34262 ft | 434 kts | 237° |
| 2026-04-23 19:47 | 55.57059 | 8.54150 | 34265 ft | 434 kts | 237° |
| 2026-04-23 19:48 | 55.53578 | 8.45458 | 34270 ft | 433 kts | 237° |
| 2026-04-23 19:48 | 55.50082 | 8.36773 | 34275 ft | 433 kts | 237° |
| 2026-04-23 19:49 | 55.46599 | 8.28135 | 34291 ft | 431 kts | 237° |
| 2026-04-23 19:49 | 55.43169 | 8.19640 | 34295 ft | 428 kts | 237° |
| 2026-04-23 19:50 | 55.39866 | 8.11516 | 34300 ft | 427 kts | 237° |
| 2026-04-23 19:50 | 55.36406 | 8.03035 | 34292 ft | 426 kts | 237° |
| 2026-04-23 19:51 | 55.32947 | 7.94586 | 34299 ft | 425 kts | 236° |
| 2026-04-23 19:51 | 55.29481 | 7.86161 | 34309 ft | 425 kts | 236° |
| 2026-04-23 19:52 | 55.26021 | 7.77759 | 34293 ft | 425 kts | 236° |
| 2026-04-23 19:52 | 55.22558 | 7.69353 | 34315 ft | 425 kts | 235° |
| 2026-04-23 19:53 | 55.19038 | 7.61053 | 34325 ft | 424 kts | 233° |
| 2026-04-23 19:53 | 55.15233 | 7.53156 | 34322 ft | 425 kts | 230° |
| 2026-04-23 19:54 | 55.11356 | 7.45471 | 34338 ft | 424 kts | 231° |
| 2026-04-23 19:54 | 55.07499 | 7.37689 | 34331 ft | 424 kts | 231° |
| 2026-04-23 19:55 | 55.03677 | 7.29848 | 34330 ft | 424 kts | 231° |
| 2026-04-23 19:55 | 54.99852 | 7.22015 | 34341 ft | 424 kts | 231° |
| 2026-04-23 19:56 | 54.96018 | 7.14225 | 34340 ft | 423 kts | 231° |
| 2026-04-23 19:56 | 54.92180 | 7.06468 | 34347 ft | 423 kts | 230° |
| 2026-04-23 19:57 | 54.88343 | 6.98723 | 34352 ft | 422 kts | 230° |
| 2026-04-23 19:57 | 54.84504 | 6.90996 | 34361 ft | 422 kts | 230° |
| 2026-04-23 19:58 | 54.80661 | 6.83300 | 34360 ft | 422 kts | 230° |
| 2026-04-23 19:58 | 54.76814 | 6.75628 | 34368 ft | 422 kts | 230° |
| 2026-04-23 19:59 | 54.72964 | 6.67964 | 34372 ft | 422 kts | 230° |
| 2026-04-23 19:59 | 54.69107 | 6.60300 | 34378 ft | 422 kts | 230° |
| 2026-04-23 20:00 | 54.65274 | 6.52707 | 34376 ft | 422 kts | 229° |
| 2026-04-23 20:00 | 54.61409 | 6.45073 | 34388 ft | 422 kts | 229° |
| 2026-04-23 20:01 | 54.57544 | 6.37470 | 34393 ft | 421 kts | 228° |
| 2026-04-23 20:01 | 54.53678 | 6.29901 | 34386 ft | 421 kts | 228° |
| 2026-04-23 20:02 | 54.49804 | 6.22321 | 34392 ft | 422 kts | 228° |
| 2026-04-23 20:02 | 54.45916 | 6.14764 | 34396 ft | 422 kts | 228° |
| 2026-04-23 20:03 | 54.42024 | 6.07203 | 34395 ft | 422 kts | 228° |
| 2026-04-23 20:03 | 54.38131 | 5.99657 | 34403 ft | 422 kts | 228° |
| 2026-04-23 20:04 | 54.34231 | 5.92126 | 34405 ft | 422 kts | 228° |
| 2026-04-23 20:04 | 54.30332 | 5.84602 | 34406 ft | 422 kts | 227° |
| 2026-04-23 20:05 | 54.27079 | 5.78361 | 34408 ft | 423 kts | 227° |
| 2026-04-23 20:05 | 54.22484 | 5.69597 | 34415 ft | 423 kts | 227° |
| 2026-04-23 20:06 | 54.18583 | 5.62139 | 34416 ft | 423 kts | 227° |
| 2026-04-23 20:06 | 54.14629 | 5.54601 | 34417 ft | 423 kts | 227° |
| 2026-04-23 20:07 | 54.10694 | 5.47156 | 34425 ft | 423 kts | 226° |
| 2026-04-23 20:07 | 54.06775 | 5.39755 | 34420 ft | 423 kts | 227° |
| 2026-04-23 20:08 | 54.02824 | 5.32322 | 34418 ft | 424 kts | 226° |
| 2026-04-23 20:08 | 53.98865 | 5.24887 | 34432 ft | 424 kts | 226° |
| 2026-04-23 20:09 | 53.94899 | 5.17462 | 34437 ft | 424 kts | 226° |
| 2026-04-23 20:09 | 53.90933 | 5.10065 | 34439 ft | 423 kts | 226° |
| 2026-04-23 20:10 | 53.87635 | 5.03937 | 34435 ft | 423 kts | 226° |
| 2026-04-23 20:10 | 53.82993 | 4.95319 | 34432 ft | 424 kts | 226° |
| 2026-04-23 20:11 | 53.79012 | 4.87963 | 34438 ft | 424 kts | 226° |
| 2026-04-23 20:11 | 53.75024 | 4.80605 | 34438 ft | 424 kts | 225° |
| 2026-04-23 20:12 | 53.71041 | 4.73266 | 34445 ft | 424 kts | 225° |
| 2026-04-23 20:12 | 53.67047 | 4.65943 | 34446 ft | 424 kts | 225° |
| 2026-04-23 20:13 | 53.63076 | 4.58688 | 34439 ft | 423 kts | 225° |
| 2026-04-23 20:13 | 53.59069 | 4.51394 | 34441 ft | 424 kts | 225° |
| 2026-04-23 20:14 | 53.55057 | 4.44119 | 34445 ft | 424 kts | 225° |
| 2026-04-23 20:14 | 53.51043 | 4.36852 | 34445 ft | 424 kts | 225° |
| 2026-04-23 20:15 | 53.47030 | 4.29596 | 34444 ft | 424 kts | 225° |
| 2026-04-23 20:15 | 53.43694 | 4.23580 | 34446 ft | 423 kts | 225° |
| 2026-04-23 20:16 | 53.39669 | 4.16357 | 34443 ft | 423 kts | 225° |
| 2026-04-23 20:16 | 53.35649 | 4.09151 | 34457 ft | 423 kts | 224° |
| 2026-04-23 20:17 | 53.31618 | 4.01968 | 34461 ft | 423 kts | 224° |
| 2026-04-23 20:17 | 53.27584 | 3.94798 | 34461 ft | 423 kts | 224° |
| 2026-04-23 20:18 | 53.23555 | 3.87633 | 34451 ft | 423 kts | 224° |
| 2026-04-23 20:18 | 53.19512 | 3.80484 | 34452 ft | 423 kts | 224° |
| 2026-04-23 20:19 | 53.15464 | 3.73361 | 34456 ft | 423 kts | 224° |
| 2026-04-23 20:19 | 53.11442 | 3.66290 | 34451 ft | 423 kts | 224° |
| 2026-04-23 20:20 | 53.07392 | 3.59174 | 34443 ft | 423 kts | 224° |
| 2026-04-23 20:20 | 53.03342 | 3.52086 | 34456 ft | 423 kts | 223° |
| 2026-04-23 20:21 | 52.99281 | 3.45022 | 34457 ft | 422 kts | 223° |
| 2026-04-23 20:21 | 52.95224 | 3.37980 | 34452 ft | 422 kts | 223° |
| 2026-04-23 20:22 | 52.91168 | 3.30960 | 34446 ft | 421 kts | 223° |
| 2026-04-23 20:22 | 52.87115 | 3.23945 | 34444 ft | 421 kts | 223° |
| 2026-04-23 20:23 | 52.83056 | 3.16941 | 34455 ft | 421 kts | 223° |
| 2026-04-23 20:23 | 52.81033 | 3.13460 | 34221 ft | 416 kts | 223° |
| 2026-04-23 20:23 | 52.79048 | 3.10043 | 33946 ft | 409 kts | 223° |
| 2026-04-23 20:23 | 52.77084 | 3.06663 | 33671 ft | 406 kts | 223° |
| 2026-04-23 20:24 | 52.75133 | 3.03317 | 33406 ft | 404 kts | 223° |
| 2026-04-23 20:24 | 52.73209 | 3.00039 | 33166 ft | 401 kts | 221° |
| 2026-04-23 20:24 | 52.71211 | 2.96864 | 32897 ft | 397 kts | 219° |
| 2026-04-23 20:24 | 52.69157 | 2.93831 | 32635 ft | 395 kts | 218° |
| 2026-04-23 20:25 | 52.67078 | 2.90891 | 32384 ft | 393 kts | 217° |
| 2026-04-23 20:25 | 52.64995 | 2.87988 | 32128 ft | 391 kts | 217° |
| 2026-04-23 20:25 | 52.62922 | 2.85083 | 31872 ft | 390 kts | 217° |
| 2026-04-23 20:25 | 52.60865 | 2.82170 | 31622 ft | 389 kts | 218° |
| 2026-04-23 20:26 | 52.58914 | 2.79097 | 31380 ft | 390 kts | 227° |
| 2026-04-23 20:26 | 52.57251 | 2.75574 | 31133 ft | 390 kts | 229° |
| 2026-04-23 20:26 | 52.55599 | 2.72033 | 30887 ft | 389 kts | 229° |
| 2026-04-23 20:26 | 52.53957 | 2.68510 | 30630 ft | 388 kts | 229° |
| 2026-04-23 20:27 | 52.52321 | 2.64993 | 30384 ft | 386 kts | 229° |
| 2026-04-23 20:27 | 52.50694 | 2.61498 | 30101 ft | 385 kts | 229° |
| 2026-04-23 20:27 | 52.49072 | 2.58016 | 29823 ft | 384 kts | 229° |
| 2026-04-23 20:27 | 52.47450 | 2.54543 | 29540 ft | 383 kts | 229° |
| 2026-04-23 20:28 | 52.45826 | 2.51080 | 29263 ft | 382 kts | 229° |
| 2026-04-23 20:28 | 52.44209 | 2.47635 | 29003 ft | 381 kts | 228° |
| 2026-04-23 20:28 | 52.42595 | 2.44203 | 28722 ft | 379 kts | 228° |
| 2026-04-23 20:28 | 52.40988 | 2.40781 | 28462 ft | 378 kts | 229° |
| 2026-04-23 20:29 | 52.39388 | 2.37372 | 28196 ft | 377 kts | 229° |
| 2026-04-23 20:29 | 52.37790 | 2.33976 | 27936 ft | 376 kts | 229° |
| 2026-04-23 20:29 | 52.36197 | 2.30599 | 27673 ft | 375 kts | 229° |
| 2026-04-23 20:29 | 52.34600 | 2.27224 | 27415 ft | 374 kts | 229° |
| 2026-04-23 20:30 | 52.33239 | 2.23588 | 27153 ft | 377 kts | 238° |
| 2026-04-23 20:30 | 52.30818 | 2.15999 | 26651 ft | 375 kts | 239° |
| 2026-04-23 20:30 | 52.29620 | 2.12214 | 26401 ft | 374 kts | 239° |
| 2026-04-23 20:31 | 52.28440 | 2.08486 | 26154 ft | 373 kts | 239° |
| 2026-04-23 20:31 | 52.27247 | 2.04724 | 25908 ft | 372 kts | 239° |
| 2026-04-23 20:31 | 52.26056 | 2.00973 | 25670 ft | 372 kts | 239° |
| 2026-04-23 20:31 | 52.24866 | 1.97233 | 25438 ft | 371 kts | 239° |
| 2026-04-23 20:32 | 52.23680 | 1.93503 | 25197 ft | 370 kts | 239° |
| 2026-04-23 20:32 | 52.22493 | 1.89781 | 24961 ft | 369 kts | 239° |
| 2026-04-23 20:32 | 52.21308 | 1.86076 | 24737 ft | 368 kts | 239° |
| 2026-04-23 20:32 | 52.20126 | 1.82383 | 24493 ft | 367 kts | 239° |
| 2026-04-23 20:33 | 52.18940 | 1.78697 | 24259 ft | 366 kts | 239° |
| 2026-04-23 20:33 | 52.17761 | 1.75032 | 24027 ft | 365 kts | 239° |
| 2026-04-23 20:33 | 52.16583 | 1.71367 | 23752 ft | 364 kts | 239° |
| 2026-04-23 20:33 | 52.15401 | 1.67713 | 23472 ft | 363 kts | 239° |
| 2026-04-23 20:34 | 52.14226 | 1.64094 | 23207 ft | 361 kts | 239° |
| 2026-04-23 20:34 | 52.13054 | 1.60486 | 22929 ft | 360 kts | 239° |
| 2026-04-23 20:34 | 52.11890 | 1.56897 | 22668 ft | 358 kts | 239° |
| 2026-04-23 20:34 | 52.10726 | 1.53309 | 22408 ft | 357 kts | 239° |
| 2026-04-23 20:35 | 52.09574 | 1.49751 | 22142 ft | 355 kts | 239° |
| 2026-04-23 20:35 | 52.08425 | 1.46204 | 21893 ft | 354 kts | 239° |
| 2026-04-23 20:35 | 52.07286 | 1.42711 | 21633 ft | 353 kts | 239° |
| 2026-04-23 20:35 | 52.06121 | 1.39149 | 21379 ft | 351 kts | 239° |
| 2026-04-23 20:36 | 52.04992 | 1.35698 | 21129 ft | 350 kts | 240° |
| 2026-04-23 20:36 | 52.03847 | 1.32210 | 20877 ft | 349 kts | 240° |
| 2026-04-23 20:36 | 52.02708 | 1.28747 | 20620 ft | 344 kts | 239° |
| 2026-04-23 20:36 | 52.01590 | 1.25333 | 20230 ft | 341 kts | 240° |
| 2026-04-23 20:37 | 52.00478 | 1.21943 | 19835 ft | 339 kts | 240° |
| 2026-04-23 20:37 | 51.99371 | 1.18584 | 19438 ft | 337 kts | 239° |
| 2026-04-23 20:37 | 51.98265 | 1.15235 | 19039 ft | 336 kts | 240° |
| 2026-04-23 20:37 | 51.97164 | 1.11901 | 18625 ft | 334 kts | 240° |
| 2026-04-23 20:38 | 51.96070 | 1.08587 | 18186 ft | 332 kts | 240° |
| 2026-04-23 20:38 | 51.94988 | 1.05304 | 17794 ft | 329 kts | 239° |
| 2026-04-23 20:38 | 51.93906 | 1.02037 | 17408 ft | 327 kts | 240° |
| 2026-04-23 20:38 | 51.92832 | 0.98805 | 17025 ft | 325 kts | 240° |
| 2026-04-23 20:39 | 51.91768 | 0.95600 | 16638 ft | 323 kts | 240° |
| 2026-04-23 20:39 | 51.90701 | 0.92396 | 16249 ft | 322 kts | 240° |
| 2026-04-23 20:39 | 51.89641 | 0.89212 | 15863 ft | 321 kts | 240° |
| 2026-04-23 20:39 | 51.88584 | 0.86043 | 15479 ft | 320 kts | 240° |
| 2026-04-23 20:40 | 51.87527 | 0.82878 | 15103 ft | 319 kts | 240° |
| 2026-04-23 20:40 | 51.86483 | 0.79755 | 14727 ft | 319 kts | 240° |
| 2026-04-23 20:40 | 51.85432 | 0.76608 | 14336 ft | 318 kts | 240° |
| 2026-04-23 20:40 | 51.84378 | 0.73458 | 13929 ft | 318 kts | 240° |
| 2026-04-23 20:41 | 51.83323 | 0.70313 | 13544 ft | 317 kts | 240° |
| 2026-04-23 20:41 | 51.82276 | 0.67188 | 13166 ft | 315 kts | 240° |
| 2026-04-23 20:41 | 51.81232 | 0.64084 | 12795 ft | 314 kts | 240° |
| 2026-04-23 20:41 | 51.80188 | 0.60993 | 12420 ft | 313 kts | 240° |
| 2026-04-23 20:42 | 51.79146 | 0.57913 | 12042 ft | 312 kts | 240° |
| 2026-04-23 20:42 | 51.78105 | 0.54844 | 11676 ft | 311 kts | 240° |
| 2026-04-23 20:42 | 51.77064 | 0.51774 | 11296 ft | 311 kts | 240° |
| 2026-04-23 20:42 | 51.76042 | 0.48756 | 10933 ft | 311 kts | 240° |
| 2026-04-23 20:43 | 51.75011 | 0.45707 | 10569 ft | 310 kts | 240° |
| 2026-04-23 20:43 | 51.73972 | 0.42639 | 10174 ft | 310 kts | 240° |
| 2026-04-23 20:43 | 51.72941 | 0.39598 | 9820 ft | 307 kts | 240° |
| 2026-04-23 20:43 | 51.71928 | 0.36616 | 9444 ft | 306 kts | 240° |
| 2026-04-23 20:44 | 51.70908 | 0.33620 | 9069 ft | 305 kts | 240° |
| 2026-04-23 20:44 | 51.69893 | 0.30639 | 8716 ft | 303 kts | 240° |
| 2026-04-23 20:44 | 51.68884 | 0.27677 | 8394 ft | 300 kts | 240° |
| 2026-04-23 20:44 | 51.67877 | 0.24734 | 7990 ft | 295 kts | 240° |
| 2026-04-23 20:45 | 51.66910 | 0.21911 | 7675 ft | 277 kts | 240° |
| 2026-04-23 20:45 | 51.65997 | 0.19260 | 7539 ft | 265 kts | 239° |
| 2026-04-23 20:45 | 51.65122 | 0.16694 | 7421 ft | 259 kts | 242° |
| 2026-04-23 20:45 | 51.64556 | 0.13956 | 7422 ft | 259 kts | 259° |
| 2026-04-23 20:46 | 51.64382 | 0.11087 | 7426 ft | 251 kts | 265° |
| 2026-04-23 20:46 | 51.64241 | 0.08386 | 7444 ft | 234 kts | 265° |
| 2026-04-23 20:46 | 51.64097 | 0.05757 | 7437 ft | 237 kts | 265° |
| 2026-04-23 20:46 | 51.63952 | 0.03158 | 7430 ft | 237 kts | 264° |
| 2026-04-23 20:47 | 51.63802 | 0.00502 | 7429 ft | 237 kts | 264° |
| 2026-04-23 20:47 | 51.63651 | -0.02146 | 7438 ft | 237 kts | 264° |
| 2026-04-23 20:47 | 51.63498 | -0.04804 | 7445 ft | 239 kts | 264° |
| 2026-04-23 20:47 | 51.63347 | -0.07465 | 7450 ft | 239 kts | 264° |
| 2026-04-23 20:48 | 51.63195 | -0.10139 | 7454 ft | 239 kts | 264° |
| 2026-04-23 20:48 | 51.63046 | -0.12767 | 7449 ft | 230 kts | 264° |
| 2026-04-23 20:48 | 51.62905 | -0.15266 | 7452 ft | 220 kts | 264° |
| 2026-04-23 20:48 | 51.62767 | -0.17700 | 7439 ft | 218 kts | 264° |
| 2026-04-23 20:49 | 51.62628 | -0.20121 | 7282 ft | 217 kts | 264° |
| 2026-04-23 20:49 | 51.62490 | -0.22526 | 7111 ft | 215 kts | 264° |
| 2026-04-23 20:49 | 51.62354 | -0.24927 | 7088 ft | 215 kts | 264° |
| 2026-04-23 20:49 | 51.62216 | -0.27324 | 7089 ft | 215 kts | 264° |
| 2026-04-23 20:50 | 51.62078 | -0.29723 | 7095 ft | 216 kts | 264° |
| 2026-04-23 20:50 | 51.61938 | -0.32126 | 7036 ft | 216 kts | 264° |
| 2026-04-23 20:50 | 51.61796 | -0.34525 | 7040 ft | 215 kts | 264° |
| 2026-04-23 20:50 | 51.61654 | -0.36928 | 7037 ft | 216 kts | 264° |
| 2026-04-23 20:51 | 51.61514 | -0.39335 | 7036 ft | 216 kts | 264° |
| 2026-04-23 20:51 | 51.61372 | -0.41733 | 7042 ft | 215 kts | 264° |
| 2026-04-23 20:51 | 51.61228 | -0.44128 | 7042 ft | 215 kts | 264° |
| 2026-04-23 20:51 | 51.61084 | -0.46535 | 7045 ft | 216 kts | 264° |
| 2026-04-23 20:52 | 51.60940 | -0.48931 | 7038 ft | 216 kts | 264° |
| 2026-04-23 20:52 | 51.60797 | -0.51334 | 7043 ft | 216 kts | 264° |
| 2026-04-23 20:52 | 51.60651 | -0.53739 | 7040 ft | 216 kts | 264° |
| 2026-04-23 20:52 | 51.60505 | -0.56140 | 7038 ft | 215 kts | 264° |
| 2026-04-23 20:53 | 51.60358 | -0.58539 | 7032 ft | 215 kts | 264° |
| 2026-04-23 20:53 | 51.60210 | -0.60940 | 7031 ft | 216 kts | 264° |
| 2026-04-23 20:53 | 51.60063 | -0.63311 | 7035 ft | 216 kts | 264° |
| 2026-04-23 20:53 | 51.59917 | -0.65723 | 6815 ft | 216 kts | 264° |
| 2026-04-23 20:54 | 51.59775 | -0.68119 | 6555 ft | 214 kts | 264° |
| 2026-04-23 20:54 | 51.59631 | -0.70500 | 6246 ft | 214 kts | 264° |
| 2026-04-23 20:54 | 51.59484 | -0.72875 | 5865 ft | 213 kts | 264° |
| 2026-04-23 20:54 | 51.59343 | -0.75248 | 5486 ft | 213 kts | 264° |
| 2026-04-23 20:55 | 51.59205 | -0.77611 | 5137 ft | 211 kts | 264° |
| 2026-04-23 20:55 | 51.59073 | -0.79949 | 4879 ft | 209 kts | 264° |
| 2026-04-23 20:55 | 51.58939 | -0.82272 | 4680 ft | 208 kts | 263° |
| 2026-04-23 20:55 | 51.58477 | -0.84430 | 4553 ft | 204 kts | 229° |
| 2026-04-23 20:56 | 51.57359 | -0.85674 | 4426 ft | 194 kts | 191° |
| 2026-04-23 20:56 | 51.56078 | -0.86074 | 4303 ft | 182 kts | 182° |
| 2026-04-23 20:56 | 51.54830 | -0.86338 | 4179 ft | 180 kts | 181° |
| 2026-04-23 20:56 | 51.53589 | -0.86584 | 4106 ft | 179 kts | 181° |
| 2026-04-23 20:57 | 51.52366 | -0.86616 | 4026 ft | 172 kts | 158° |
| 2026-04-23 20:57 | 51.51320 | -0.85788 | 3954 ft | 167 kts | 143° |
| 2026-04-23 20:57 | 51.50477 | -0.84563 | 3885 ft | 162 kts | 125° |
| 2026-04-23 20:57 | 51.49821 | -0.83099 | 3806 ft | 161 kts | 121° |
| 2026-04-23 20:58 | 51.49195 | -0.81602 | 3737 ft | 162 kts | 121° |
| 2026-04-23 20:58 | 51.48573 | -0.80095 | 3652 ft | 162 kts | 121° |
| 2026-04-23 20:58 | 51.47952 | -0.78589 | 3592 ft | 161 kts | 120° |
| 2026-04-23 20:58 | 51.47600 | -0.76923 | 3522 ft | 160 kts | 93° |
| 2026-04-23 20:59 | 51.47606 | -0.75145 | 3356 ft | 159 kts | 90° |
| 2026-04-23 20:59 | 51.47619 | -0.73327 | 3169 ft | 166 kts | 90° |
| 2026-04-23 20:59 | 51.47631 | -0.71466 | 2955 ft | 167 kts | 90° |
| 2026-04-23 20:59 | 51.47643 | -0.69615 | 2729 ft | 165 kts | 90° |
| 2026-04-23 21:00 | 51.47654 | -0.67780 | 2498 ft | 164 kts | 90° |
| 2026-04-23 21:00 | 51.47664 | -0.65958 | 2287 ft | 163 kts | 90° |
| 2026-04-23 21:00 | 51.47674 | -0.64164 | 2066 ft | 162 kts | 89° |
| 2026-04-23 21:00 | 51.47683 | -0.62359 | 1840 ft | 161 kts | 89° |
| 2026-04-23 21:01 | 51.47693 | -0.60556 | 1630 ft | 162 kts | 89° |
| 2026-04-23 21:01 | 51.47702 | -0.58732 | 1411 ft | 163 kts | 89° |
| 2026-04-23 21:01 | 51.47707 | -0.57611 | 1274 ft | 152 kts | 88° |
| 2026-04-23 21:01 | 51.47717 | -0.55419 | 991 ft | 141 kts | 88° |
| 2026-04-23 21:02 | 51.47722 | -0.54377 | 857 ft | 140 kts | 88° |
| 2026-04-23 21:02 | 51.47729 | -0.52827 | 676 ft | 137 kts | 88° |
| 2026-04-23 21:02 | 51.47736 | -0.51311 | 486 ft | 135 kts | 89° |
| 2026-04-23 21:02 | 51.47743 | -0.49800 | 289 ft | 135 kts | 89° |
| 2026-04-23 21:03 | 51.47744 | -0.48295 | 107 ft | 131 kts | 89° |
| 2026-04-23 21:03 | 51.47758 | -0.47041 | 90 ft | 91 kts | 88° |
| 2026-04-23 21:03 | 51.47760 | -0.46305 | 87 ft | 41 kts | 92° |
| 2026-04-23 21:03 | 51.47758 | -0.45986 | 87 ft | 29 kts | 89° |
| 2026-04-23 21:04 | 51.47747 | -0.45618 | 86 ft | 32 kts | 101° |
| 2026-04-23 21:04 | 51.47660 | -0.45468 | 88 ft | 16 kts | 173° |
| 2026-04-23 21:04 | 51.47596 | -0.45577 | 90 ft | 15 kts | 267° |
| 2026-04-23 21:04 | 51.47595 | -0.45693 | 88 ft | 10 kts | 269° |
| 2026-04-23 21:05 | 51.47595 | -0.45750 | 90 ft | 1 kts | 269° |
| 2026-04-23 21:05 | 51.47594 | -0.45777 | 89 ft | 4 kts | 269° |
| 2026-04-23 21:05 | 51.47594 | -0.45835 | 88 ft | 7 kts | 270° |
| 2026-04-23 21:05 | 51.47594 | -0.45875 | 90 ft | 0 kts | 270° |
| 2026-04-23 21:06 | 51.47594 | -0.45903 | 88 ft | 7 kts | 269° |
| 2026-04-23 21:06 | 51.47594 | -0.46042 | 87 ft | 18 kts | 270° |
| 2026-04-23 21:06 | 51.47592 | -0.46244 | 86 ft | 14 kts | 270° |
| 2026-04-23 21:06 | 51.47593 | -0.46387 | 86 ft | 13 kts | 269° |
| 2026-04-23 21:07 | 51.47592 | -0.46542 | 86 ft | 14 kts | 270° |
| 2026-04-23 21:07 | 51.47591 | -0.46709 | 86 ft | 16 kts | 270° |
| 2026-04-23 21:07 | 51.47580 | -0.46885 | 89 ft | 16 kts | 245° |
| 2026-04-23 21:07 | 51.47483 | -0.46911 | 87 ft | 16 kts | 166° |
| 2026-04-23 21:08 | 51.47373 | -0.46867 | 86 ft | 17 kts | 171° |
| 2026-04-23 21:08 | 51.47277 | -0.46862 | 87 ft | 13 kts | 173° |
| 2026-04-23 21:08 | 51.47242 | -0.46806 | 88 ft | 12 kts | 109° |
| 2026-04-23 21:08 | 51.47239 | -0.46787 | 87 ft | 2 kts | 101° |
| 2026-04-23 21:09 | 51.47239 | -0.46696 | 86 ft | 12 kts | 87° |
| 2026-04-23 21:09 | 51.47240 | -0.46559 | 86 ft | 13 kts | 90° |
| 2026-04-23 21:09 | 51.47225 | -0.46412 | 87 ft | 14 kts | 127° |
| 2026-04-23 21:09 | 51.47151 | -0.46326 | 88 ft | 12 kts | 146° |
| 2026-04-23 21:10 | 51.47086 | -0.46257 | 90 ft | 6 kts | 145° |
| 2026-04-23 21:10 | 51.47049 | -0.46215 | 90 ft | 7 kts | 145° |
| 2026-04-23 21:10 | 51.47024 | -0.46166 | 89 ft | 5 kts | 96° |
| 2026-04-23 21:10 | 51.47039 | -0.46113 | 90 ft | 6 kts | 57° |
| 2026-04-23 21:11 | 51.47055 | -0.46076 | 89 ft | 3 kts | 55° |
| 2026-04-23 21:11 | 51.47057 | -0.46071 | 89 ft | 0 kts | 55° |